createdAt,value
2019-03-15T00:02:42.328Z,98167.47
2019-03-15T00:05:11.780Z,98167.47
2019-03-15T00:07:41.343Z,98175.28
2019-03-15T00:10:10.790Z,98171.83
2019-03-15T00:12:40.685Z,98168.16
2019-03-15T00:15:10.286Z,98166.84
2019-03-15T00:17:39.911Z,98167.62
2019-03-15T00:20:30.371Z,98168.88
2019-03-15T00:23:11.491Z,98171.44
2019-03-15T00:25:41.016Z,98175.49
2019-03-15T00:28:10.455Z,98175.91
2019-03-15T00:30:44.746Z,98177.53
2019-03-15T00:33:14.113Z,98175.09
2019-03-15T00:35:43.822Z,98173.78
2019-03-15T00:38:32.170Z,98176.72
2019-03-15T00:41:01.555Z,98174.08
2019-03-15T00:43:31.159Z,98180.78
2019-03-15T00:48:35.572Z,98183.79
2019-03-15T00:51:05.344Z,98183.88
2019-03-15T00:53:34.986Z,98183.37
2019-03-15T00:56:04.429Z,98182.86
2019-03-15T00:58:33.821Z,98177.88
2019-03-15T01:01:04.494Z,98178.98
2019-03-15T01:03:33.858Z,98187.31
2019-03-15T01:06:03.283Z,98180.80
2019-03-15T01:08:32.752Z,98180.49
2019-03-15T01:11:02.372Z,98184.77
2019-03-15T01:13:50.796Z,98186.08
2019-03-15T01:16:20.196Z,98178.21
2019-03-15T01:18:49.599Z,98187.34
2019-03-15T01:21:38.067Z,98176.44
2019-03-15T01:24:09.062Z,98176.44
2019-03-15T01:26:41.099Z,98179.66
2019-03-15T01:31:46.113Z,98184.44
2019-03-15T01:34:27.052Z,98181.48
2019-03-15T01:37:07.803Z,98179.09
2019-03-15T01:39:37.284Z,98179.90
2019-03-15T01:42:06.656Z,98177.77
2019-03-15T01:44:36.070Z,98176.74
2019-03-15T01:47:05.462Z,98183.86
2019-03-15T01:49:35.185Z,98182.24
2019-03-15T01:52:23.788Z,98171.57
2019-03-15T01:58:05.993Z,98184.41
2019-03-15T02:00:35.927Z,98184.41
2019-03-15T02:03:05.307Z,98180.31
2019-03-15T02:08:10.072Z,98185.61
2019-03-15T02:10:59.155Z,98186.27
2019-03-15T02:13:40.379Z,98193.57
2019-03-15T02:16:09.984Z,98193.57
2019-03-15T02:18:58.378Z,98191.38
2019-03-15T02:21:40.091Z,98191.38
2019-03-15T02:24:09.617Z,98190.65
2019-03-15T02:26:39.215Z,98180.88
2019-03-15T02:29:08.628Z,98178.14
2019-03-15T02:34:27.347Z,98184.42
2019-03-15T02:37:17.425Z,98189.72
2019-03-15T02:39:46.847Z,98182.59
2019-03-15T02:42:16.229Z,98184.51
2019-03-15T02:44:45.625Z,98184.38
2019-03-15T02:47:15.036Z,98176.57
2019-03-15T02:49:44.424Z,98185.46
2019-03-15T02:52:32.889Z,98179.91
2019-03-15T02:55:02.410Z,98179.91
2019-03-15T03:00:22.527Z,98175.77
2019-03-15T03:02:51.954Z,98180.81
2019-03-15T03:05:21.378Z,98182.34
2019-03-15T03:07:51.116Z,98186.92
2019-03-15T03:10:22.163Z,98187.48
2019-03-15T03:12:51.554Z,98185.22
2019-03-15T03:15:21.606Z,98178.39
2019-03-15T03:17:50.956Z,98177.66
2019-03-15T03:20:21.204Z,98178.98
2019-03-15T03:23:01.932Z,98165.07
2019-03-15T03:25:33.630Z,98176.34
2019-03-15T03:28:03.024Z,98176.55
2019-03-15T03:30:32.481Z,98178.91
2019-03-15T03:33:03.963Z,98175.44
2019-03-15T03:35:33.397Z,98176.55
2019-03-15T03:38:03.034Z,98178.39
2019-03-15T03:40:51.659Z,98173.18
2019-03-15T03:43:21.620Z,98176.20
2019-03-15T03:46:29.016Z,98171.78
2019-03-15T03:48:58.459Z,98174.21
2019-03-15T03:51:27.854Z,98169.34
2019-03-15T03:53:57.312Z,98169.21
2019-03-15T03:56:26.855Z,98172.67
2019-03-15T03:58:56.365Z,98167.28
2019-03-15T04:01:25.783Z,98173.09
2019-03-15T04:03:55.245Z,98167.13
2019-03-15T04:06:24.821Z,98172.45
2019-03-15T04:11:54.801Z,98175.16
2019-03-15T04:14:16.670Z,98172.51
2019-03-15T04:16:46.241Z,98163.61
2019-03-15T04:19:15.751Z,98178.40
2019-03-15T04:22:04.453Z,98178.40
2019-03-15T04:24:33.979Z,98182.16
2019-03-15T04:27:03.385Z,98178.70
2019-03-15T04:29:51.825Z,98181.34
2019-03-15T04:32:21.371Z,98175.53
2019-03-15T04:34:50.785Z,98180.83
2019-03-15T04:37:22.758Z,98173.83
2019-03-15T04:39:51.274Z,98178.61
2019-03-15T04:42:27.845Z,98175.97
2019-03-15T04:44:57.437Z,98176.78
2019-03-15T04:47:26.974Z,98176.05
2019-03-15T04:52:31.558Z,98174.52
2019-03-15T04:55:12.546Z,98175.92
2019-03-15T05:00:17.625Z,98182.41
2019-03-15T05:02:47.077Z,98173.48
2019-03-15T05:05:16.456Z,98174.08
2019-03-15T05:07:46.065Z,98168.65
2019-03-15T05:10:34.442Z,98172.19
2019-03-15T05:13:04.262Z,98172.54
2019-03-15T05:15:33.805Z,98174.92
2019-03-15T05:18:03.219Z,98179.11
2019-03-15T05:20:32.583Z,98177.70
2019-03-15T05:23:02.222Z,98177.27
2019-03-15T05:25:31.799Z,98180.44
2019-03-15T05:28:01.387Z,98180.48
2019-03-15T05:30:52.093Z,98179.76
2019-03-15T05:33:21.661Z,98184.33
2019-03-15T05:35:51.142Z,98185.86
2019-03-15T05:38:20.685Z,98187.48
2019-03-15T05:40:50.062Z,98189.33
2019-03-15T05:43:19.522Z,98191.54
2019-03-15T05:45:48.968Z,98192.87
2019-03-15T05:48:18.415Z,98196.19
2019-03-15T05:51:07.019Z,98190.52
2019-03-15T05:53:36.440Z,98194.05
2019-03-15T05:58:50.386Z,98196.11
2019-03-15T06:01:20.023Z,98192.73
2019-03-15T06:06:37.849Z,98195.83
2019-03-15T06:09:07.639Z,98198.23
2019-03-15T06:11:37.042Z,98195.88
2019-03-15T06:14:07.010Z,98196.69
2019-03-15T06:16:36.444Z,98193.23
2019-03-15T06:19:05.870Z,98195.06
2019-03-15T06:21:35.426Z,98191.09
2019-03-15T06:24:04.892Z,98195.88
2019-03-15T06:26:53.386Z,98197.72
2019-03-15T06:29:44.063Z,98186.69
2019-03-15T06:32:13.487Z,98190.52
2019-03-15T06:34:43.524Z,98186.67
2019-03-15T06:37:17.873Z,98183.88
2019-03-15T06:39:47.290Z,98191.09
2019-03-15T06:42:16.692Z,98192.94
2019-03-15T06:44:57.459Z,98187.63
2019-03-15T06:47:17.345Z,98183.36
2019-03-15T06:49:47.304Z,98189.70
2019-03-15T06:54:53.172Z,98184.25
2019-03-15T06:57:22.629Z,98184.84
2019-03-15T06:59:52.011Z,98177.11
2019-03-15T07:02:21.416Z,98172.84
2019-03-15T07:04:51.330Z,98165.70
2019-03-15T07:07:39.796Z,98166.50
2019-03-15T07:10:11.321Z,98169.45
2019-03-15T07:12:40.868Z,98156.27
2019-03-15T07:15:15.492Z,98156.48
2019-03-15T07:17:47.159Z,98152.85
2019-03-15T07:23:12.012Z,98154.52
2019-03-15T07:25:41.479Z,98152.16
2019-03-15T07:28:11.045Z,98154.67
2019-03-15T07:30:40.526Z,98154.12
2019-03-15T07:33:10.074Z,98156.40
2019-03-15T07:35:39.609Z,98158.09
2019-03-15T07:38:09.292Z,98156.36
2019-03-15T07:40:38.636Z,98147.44
2019-03-15T07:43:08.030Z,98149.23
2019-03-15T07:45:37.505Z,98148.89
2019-03-15T07:48:06.899Z,98144.86
2019-03-15T07:50:36.310Z,98151.06
2019-03-15T07:53:05.772Z,98150.32
2019-03-15T07:55:35.222Z,98142.81
2019-03-15T07:58:04.612Z,98141.90
2019-03-15T08:00:34.117Z,98142.03
2019-03-15T08:03:04.534Z,98142.35
2019-03-15T08:05:33.958Z,98139.47
2019-03-15T08:08:03.401Z,98135.25
2019-03-15T08:10:32.866Z,98137.45
2019-03-15T08:13:02.299Z,98131.10
2019-03-15T08:15:33.140Z,98126.30
2019-03-15T08:20:57.921Z,98132.88
2019-03-15T08:23:27.681Z,98130.62
2019-03-15T08:25:57.240Z,98135.28
2019-03-15T08:28:27.416Z,98131.52
2019-03-15T08:30:57.048Z,98129.47
2019-03-15T08:33:26.713Z,98132.52
2019-03-15T08:35:56.272Z,98133.33
2019-03-15T08:38:28.607Z,98133.04
2019-03-15T08:40:57.980Z,98130.52
2019-03-15T08:43:27.398Z,98122.78
2019-03-15T08:45:56.952Z,98132.37
2019-03-15T08:51:26.242Z,98126.81
2019-03-15T08:56:33.393Z,98135.07
2019-03-15T09:01:43.966Z,98129.41
2019-03-15T09:04:13.355Z,98129.55
2019-03-15T09:06:43.467Z,98125.04
2019-03-15T09:09:13.128Z,98128.83
2019-03-15T09:12:03.151Z,98128.14
2019-03-15T09:14:32.573Z,98123.23
2019-03-15T09:17:01.986Z,98122.74
2019-03-15T09:19:31.402Z,98123.03
2019-03-15T09:22:15.488Z,98118.23
2019-03-15T09:24:32.400Z,98111.48
2019-03-15T09:27:01.904Z,98115.03
2019-03-15T09:29:31.372Z,98112.20
2019-03-15T09:32:08.728Z,98113.64
2019-03-15T09:34:42.469Z,98110.48
2019-03-15T09:40:00.645Z,98102.56
2019-03-15T09:42:48.956Z,98107.05
2019-03-15T09:45:18.698Z,98098.52
2019-03-15T09:48:07.066Z,98101.92
2019-03-15T09:50:50.481Z,98095.70
2019-03-15T09:53:19.308Z,98092.86
2019-03-15T09:55:51.230Z,98093.80
2019-03-15T09:58:20.646Z,98091.52
2019-03-15T10:03:38.475Z,98092.55
2019-03-15T10:06:14.728Z,98087.19
2019-03-15T10:08:54.133Z,98089.89
2019-03-15T10:11:10.340Z,98091.23
2019-03-15T10:13:39.999Z,98094.78
2019-03-15T10:16:09.394Z,98092.09
2019-03-15T10:21:13.921Z,98077.48
2019-03-15T10:23:43.507Z,98081.97
2019-03-15T10:26:14.964Z,98084.55
2019-03-15T10:28:44.921Z,98086.98
2019-03-15T10:31:14.358Z,98086.36
2019-03-15T10:33:50.771Z,98086.50
2019-03-15T10:36:17.301Z,98086.38
2019-03-15T10:38:46.893Z,98084.30
2019-03-15T10:41:16.311Z,98085.45
2019-03-15T10:43:45.707Z,98082.40
2019-03-15T10:46:15.228Z,98079.92
2019-03-15T10:49:03.699Z,98078.28
2019-03-15T10:51:33.307Z,98079.22
2019-03-15T10:56:58.348Z,98077.25
2019-03-15T10:59:27.954Z,98076.21
2019-03-15T11:01:57.375Z,98072.80
2019-03-15T11:04:27.001Z,98069.86
2019-03-15T11:06:56.411Z,98062.40
2019-03-15T11:09:25.920Z,98061.41
2019-03-15T11:11:55.362Z,98066.03
2019-03-15T11:14:26.933Z,98059.17
2019-03-15T11:16:56.379Z,98059.17
2019-03-15T11:19:25.916Z,98062.11
2019-03-15T11:21:55.345Z,98053.84
2019-03-15T11:24:26.498Z,98060.27
2019-03-15T11:29:31.113Z,98053.84
2019-03-15T11:32:00.650Z,98039.48
2019-03-15T11:34:48.918Z,98045.88
2019-03-15T11:37:18.513Z,98035.00
2019-03-15T11:39:47.939Z,98036.63
2019-03-15T11:42:17.381Z,98029.41
2019-03-15T11:47:22.024Z,98024.58
2019-03-15T11:49:51.587Z,98019.67
2019-03-15T11:52:21.028Z,98017.39
2019-03-15T11:54:50.446Z,98017.67
2019-03-15T11:57:32.352Z,98008.19
2019-03-15T12:00:02.198Z,97998.31
2019-03-15T12:02:32.193Z,97996.40
2019-03-15T12:05:01.724Z,97999.77
2019-03-15T12:07:50.122Z,97994.72
2019-03-15T12:10:19.649Z,97999.19
2019-03-15T12:12:49.039Z,97994.30
2019-03-15T12:15:18.496Z,97993.81
2019-03-15T12:17:48.029Z,97988.30
2019-03-15T12:20:36.797Z,97982.45
2019-03-15T12:23:17.568Z,97979.50
2019-03-15T12:25:49.541Z,97974.48
2019-03-15T12:28:18.943Z,97971.59
2019-03-15T12:30:48.421Z,97966.89
2019-03-15T12:33:17.948Z,97966.94
2019-03-15T12:35:47.372Z,97963.27
2019-03-15T12:38:16.834Z,97966.81
2019-03-15T12:40:51.531Z,97964.75
2019-03-15T12:43:21.024Z,97968.83
2019-03-15T12:45:52.202Z,97967.61
2019-03-15T12:48:21.589Z,97965.77
2019-03-15T12:50:54.138Z,97960.97
2019-03-15T12:53:23.611Z,97958.83
2019-03-15T12:56:10.903Z,97952.76
2019-03-15T12:58:39.198Z,97950.05
2019-03-15T13:01:09.083Z,97939.94
2019-03-15T13:03:38.605Z,97936.76
2019-03-15T13:06:07.987Z,97935.72
2019-03-15T13:08:37.451Z,97930.59
2019-03-15T13:11:11.462Z,97937.52
2019-03-15T13:13:41.068Z,97931.09
2019-03-15T13:16:12.533Z,97926.58
2019-03-15T13:21:20.580Z,97912.91
2019-03-15T13:26:44.088Z,97901.58
2019-03-15T13:29:13.805Z,97899.59
2019-03-15T13:31:45.928Z,97902.89
2019-03-15T13:34:15.375Z,97897.37
2019-03-15T13:36:45.217Z,97898.70
2019-03-15T13:39:14.628Z,97895.77
2019-03-15T13:41:46.956Z,97896.77
2019-03-15T13:44:16.403Z,97894.04
2019-03-15T13:46:45.921Z,97892.19
2019-03-15T13:49:34.429Z,97892.56
2019-03-15T13:52:04.356Z,97897.43
2019-03-15T13:54:33.791Z,97889.69
2019-03-15T13:57:03.229Z,97890.29
2019-03-15T13:59:32.629Z,97883.36
2019-03-15T14:02:07.655Z,97876.78
2019-03-15T14:04:55.542Z,97873.89
2019-03-15T14:10:19.906Z,97867.87
2019-03-15T14:12:49.363Z,97871.91
2019-03-15T14:15:18.887Z,97870.52
2019-03-15T14:17:48.524Z,97869.50
2019-03-15T14:20:20.444Z,97861.39
2019-03-15T14:23:09.487Z,97864.15
2019-03-15T14:25:51.044Z,97853.87
2019-03-15T14:28:20.493Z,97856.58
2019-03-15T14:30:50.111Z,97852.40
2019-03-15T14:33:19.675Z,97855.41
2019-03-15T14:43:45.130Z,97833.19
2019-03-15T14:46:14.850Z,97833.00
2019-03-15T14:49:03.500Z,97820.60
2019-03-15T14:54:46.666Z,97821.75
2019-03-15T14:57:16.510Z,97823.89
2019-03-15T14:59:46.139Z,97821.19
2019-03-15T15:02:16.002Z,97819.85
2019-03-15T15:04:45.586Z,97819.31
2019-03-15T15:07:18.491Z,97805.66
2019-03-15T15:12:23.311Z,97794.50
2019-03-15T15:14:52.743Z,97794.78
2019-03-15T15:17:24.471Z,97792.16
2019-03-15T15:20:08.224Z,97788.05
2019-03-15T15:25:21.727Z,97773.29
2019-03-15T15:33:21.907Z,97766.27
2019-03-15T15:35:54.308Z,97768.45
2019-03-15T15:44:09.112Z,97756.05
2019-03-15T15:46:46.213Z,97758.19
2019-03-15T15:49:15.933Z,97758.67
2019-03-15T15:51:47.511Z,97757.00
2019-03-15T15:54:17.259Z,97750.37
2019-03-15T15:56:46.724Z,97740.88
2019-03-15T15:59:16.144Z,97741.44
2019-03-15T16:01:45.572Z,97740.11
2019-03-15T16:04:14.973Z,97737.69
2019-03-15T16:06:44.347Z,97739.22
2019-03-15T16:09:13.914Z,97735.46
2019-03-15T16:11:43.805Z,97742.30
2019-03-15T16:14:13.542Z,97740.08
2019-03-15T16:16:43.311Z,97733.38
2019-03-15T16:19:35.847Z,97734.42
2019-03-15T16:22:05.566Z,97728.30
2019-03-15T16:24:34.957Z,97732.39
2019-03-15T16:27:04.463Z,97722.13
2019-03-15T16:29:36.877Z,97720.56
2019-03-15T16:32:06.291Z,97717.94
2019-03-15T16:34:35.667Z,97720.85
2019-03-15T16:37:08.246Z,97723.03
2019-03-15T16:39:37.669Z,97723.35
2019-03-15T16:42:08.754Z,97714.01
2019-03-15T16:47:13.921Z,97707.67
2019-03-15T16:52:29.111Z,97708.86
2019-03-15T16:54:58.748Z,97712.50
2019-03-15T16:57:28.292Z,97707.95
2019-03-15T16:59:57.929Z,97697.52
2019-03-15T17:02:30.554Z,97702.59
2019-03-15T17:05:00.071Z,97693.26
2019-03-15T17:07:29.772Z,97692.41
2019-03-15T17:09:59.192Z,97692.06
2019-03-15T17:12:28.847Z,97688.28
2019-03-15T17:14:58.422Z,97688.99
2019-03-15T17:17:27.854Z,97683.63
2019-03-15T17:19:57.333Z,97685.38
2019-03-15T17:25:01.684Z,97683.19
2019-03-15T17:27:50.206Z,97679.20
2019-03-15T17:30:31.603Z,97676.22
2019-03-15T17:33:01.490Z,97684.66
2019-03-15T17:35:30.943Z,97685.89
2019-03-15T17:38:00.439Z,97684.02
2019-03-15T17:40:30.014Z,97683.73
2019-03-15T17:43:02.066Z,97672.27
2019-03-15T17:45:31.979Z,97678.09
2019-03-15T17:48:01.438Z,97670.61
2019-03-15T17:50:31.199Z,97672.45
2019-03-15T17:53:03.144Z,97678.28
2019-03-15T17:58:07.338Z,97675.05
2019-03-15T18:03:21.657Z,97672.34
2019-03-15T18:05:49.591Z,97671.77
2019-03-15T18:08:18.972Z,97671.77
2019-03-15T18:10:48.852Z,97671.25
2019-03-15T18:13:18.242Z,97664.56
2019-03-15T18:15:47.657Z,97672.81
2019-03-15T18:20:52.179Z,97668.88
2019-03-15T18:23:21.683Z,97663.05
2019-03-15T18:25:51.145Z,97663.81
2019-03-15T18:28:20.606Z,97660.30
2019-03-15T18:30:50.901Z,97662.34
2019-03-15T18:33:20.295Z,97663.09
2019-03-15T18:35:49.695Z,97662.28
2019-03-15T18:38:19.094Z,97656.41
2019-03-15T18:40:48.501Z,97657.45
2019-03-15T18:43:17.896Z,97659.02
2019-03-15T18:45:47.324Z,97656.64
2019-03-15T18:48:16.854Z,97661.66
2019-03-15T18:50:46.281Z,97658.78
2019-03-15T18:55:50.453Z,97659.48
2019-03-15T19:01:00.405Z,97656.83
2019-03-15T19:03:29.862Z,97656.00
2019-03-15T19:05:59.379Z,97661.26
2019-03-15T19:08:29.084Z,97656.76
2019-03-15T19:11:05.032Z,97659.59
2019-03-15T19:13:34.593Z,97661.97
2019-03-15T19:16:04.282Z,97658.97
2019-03-15T19:18:33.744Z,97655.75
2019-03-15T19:21:03.434Z,97661.31
2019-03-15T19:23:32.909Z,97660.17
2019-03-15T19:26:02.320Z,97663.34
2019-03-15T19:28:32.007Z,97661.34
2019-03-15T19:31:20.548Z,97662.41
2019-03-15T19:34:01.170Z,97661.31
2019-03-15T19:36:31.555Z,97664.67
2019-03-15T19:39:01.049Z,97663.58
2019-03-15T19:44:05.931Z,97669.86
2019-03-15T19:46:35.431Z,97670.38
2019-03-15T19:49:05.206Z,97676.17
2019-03-15T19:51:34.564Z,97673.75
2019-03-15T19:54:04.290Z,97664.89
2019-03-15T19:56:33.720Z,97672.75
2019-03-15T19:59:03.187Z,97668.44
2019-03-15T20:01:32.590Z,97672.93
2019-03-15T20:04:21.464Z,97673.39
2019-03-15T20:06:51.162Z,97672.76
2019-03-15T20:09:20.959Z,97676.02
2019-03-15T20:11:50.462Z,97674.92
2019-03-15T20:14:19.866Z,97679.09
2019-03-15T20:16:49.283Z,97667.71
2019-03-15T20:19:18.681Z,97676.72
2019-03-15T20:22:07.090Z,97672.20
2019-03-15T20:27:30.416Z,97673.41
2019-03-15T20:29:59.917Z,97667.24
2019-03-15T20:32:29.372Z,97674.95
2019-03-15T20:34:59.031Z,97675.93
2019-03-15T20:37:49.141Z,97669.90
2019-03-15T20:40:18.559Z,97667.19
2019-03-15T20:42:47.996Z,97667.91
2019-03-15T20:47:52.225Z,97675.84
2019-03-15T20:50:21.654Z,97680.56
2019-03-15T20:52:51.068Z,97675.81
2019-03-15T20:55:20.486Z,97686.30
2019-03-15T20:57:50.118Z,97694.56
2019-03-15T21:00:19.746Z,97694.97
2019-03-15T21:02:49.201Z,97696.06
2019-03-15T21:05:18.783Z,97694.08
2019-03-15T21:07:48.171Z,97693.80
2019-03-15T21:15:40.772Z,97698.92
2019-03-15T21:18:10.322Z,97704.32
2019-03-15T21:20:43.116Z,97703.22
2019-03-15T21:23:12.540Z,97702.70
2019-03-15T21:25:42.201Z,97704.33
2019-03-15T21:28:11.554Z,97714.05
2019-03-15T21:30:48.256Z,97713.47
2019-03-15T21:33:12.408Z,97715.37
2019-03-15T21:35:41.852Z,97714.56
2019-03-15T21:38:12.930Z,97718.97
2019-03-15T21:40:42.378Z,97726.09
2019-03-15T21:43:11.902Z,97734.02
2019-03-15T21:45:41.308Z,97733.88
2019-03-15T21:50:46.350Z,97732.97
2019-03-15T21:55:57.301Z,97741.92
2019-03-15T21:58:26.910Z,97743.35
2019-03-15T22:01:02.381Z,97748.64
2019-03-15T22:03:28.210Z,97744.59
2019-03-15T22:05:57.669Z,97755.62
2019-03-15T22:08:27.180Z,97756.42
2019-03-15T22:10:56.689Z,97761.64
2019-03-15T22:13:45.084Z,97768.55
2019-03-15T22:16:14.486Z,97770.28
2019-03-15T22:18:43.885Z,97773.29
2019-03-15T22:21:13.351Z,97774.22
2019-03-15T22:23:42.929Z,97760.55
2019-03-15T22:26:12.334Z,97775.36
2019-03-15T22:28:41.807Z,97777.23
2019-03-15T22:31:16.560Z,97783.77
2019-03-15T22:33:42.611Z,97792.51
2019-03-15T22:36:31.117Z,97784.10
2019-03-15T22:39:11.914Z,97794.64
2019-03-15T22:41:41.646Z,97792.84
2019-03-15T22:44:30.242Z,97796.73
2019-03-15T22:47:11.573Z,97795.41
2019-03-15T22:49:41.103Z,97795.41
2019-03-15T22:52:29.644Z,97797.14
2019-03-15T22:58:00.944Z,97802.58
2019-03-15T23:00:36.166Z,97803.17
2019-03-15T23:03:06.034Z,97818.82
2019-03-15T23:05:36.972Z,97824.78
2019-03-15T23:11:00.674Z,97826.94
2019-03-15T23:13:30.723Z,97833.03
2019-03-15T23:16:19.092Z,97845.45
2019-03-15T23:18:48.743Z,97845.45
2019-03-15T23:21:18.113Z,97865.25
2019-03-15T23:23:47.480Z,97845.06
2019-03-15T23:26:16.886Z,97858.91
2019-03-15T23:28:47.392Z,97859.65
2019-03-15T23:31:17.876Z,97861.78
2019-03-15T23:33:47.363Z,97877.02
2019-03-15T23:36:16.782Z,97877.02
2019-03-15T23:38:46.146Z,97869.22
2019-03-15T23:41:26.838Z,97882.58
2019-03-15T23:43:56.310Z,97882.58
2019-03-15T23:46:25.819Z,97886.41
2019-03-15T23:48:55.223Z,97885.69
2019-03-15T23:51:24.783Z,97885.60
2019-03-15T23:53:54.162Z,97895.80
2019-03-15T23:56:23.668Z,97901.95
2019-03-15T23:58:53.078Z,97901.09
